createdAt,value
2022-10-02T00:01:52.146Z,10.72
2022-10-02T00:04:22.494Z,10.72
2022-10-02T00:06:51.372Z,10.75
2022-10-02T00:09:24.430Z,10.81
2022-10-02T00:11:56.373Z,10.67
2022-10-02T00:14:25.202Z,10.62
2022-10-02T00:16:55.891Z,10.58
2022-10-02T00:19:23.641Z,10.72
2022-10-02T00:22:00.899Z,10.71
2022-10-02T00:24:34.659Z,10.58
2022-10-02T00:27:06.318Z,10.67
2022-10-02T00:29:39.165Z,10.63
2022-10-02T00:32:17.429Z,10.75
2022-10-02T00:34:50.483Z,10.68
2022-10-02T00:37:22.341Z,10.79
2022-10-02T00:39:56.371Z,10.73
2022-10-02T00:42:37.465Z,10.88
2022-10-02T00:45:33.169Z,10.89
2022-10-02T00:48:06.724Z,10.91
2022-10-02T00:50:38.272Z,10.90
2022-10-02T00:53:13.732Z,10.90
2022-10-02T00:55:51.416Z,10.95
2022-10-02T00:58:29.820Z,10.82
2022-10-02T01:01:03.594Z,10.93
2022-10-02T01:03:35.380Z,11.16
2022-10-02T01:06:03.820Z,11.19
2022-10-02T01:08:32.153Z,11.23
2022-10-02T01:11:00.645Z,11.29
2022-10-02T01:13:28.780Z,11.37
2022-10-02T01:15:58.482Z,11.49
2022-10-02T01:18:26.460Z,11.40
2022-10-02T01:20:59.236Z,11.37
2022-10-02T01:23:31.461Z,11.50
2022-10-02T01:26:01.127Z,11.48
2022-10-02T01:28:29.079Z,11.47
2022-10-02T01:30:59.016Z,11.45
2022-10-02T01:33:26.996Z,11.38
2022-10-02T01:35:54.954Z,11.42
2022-10-02T01:38:24.637Z,11.50
2022-10-02T01:40:52.420Z,11.50
2022-10-02T01:43:24.122Z,11.39
2022-10-02T01:45:53.668Z,11.30
2022-10-02T01:48:26.024Z,11.24
2022-10-02T01:50:57.641Z,11.19
2022-10-02T01:53:29.724Z,11.28
2022-10-02T01:56:03.472Z,11.37
2022-10-02T01:58:36.665Z,11.37
2022-10-02T02:01:11.802Z,11.21
2022-10-02T02:03:43.083Z,11.16
2022-10-02T02:06:14.107Z,11.10
2022-10-02T02:08:47.459Z,11.11
2022-10-02T02:11:16.481Z,11.09
2022-10-02T02:13:48.757Z,11.07
2022-10-02T02:16:22.647Z,11.17
2022-10-02T02:18:52.888Z,11.11
2022-10-02T02:21:23.355Z,11.11
2022-10-02T02:23:52.310Z,11.04
2022-10-02T02:26:20.949Z,10.90
2022-10-02T02:28:52.002Z,10.90
2022-10-02T02:31:21.399Z,10.91
2022-10-02T02:33:52.032Z,10.89
2022-10-02T02:36:22.269Z,10.89
2022-10-02T02:38:52.554Z,10.83
2022-10-02T02:41:22.803Z,10.87
2022-10-02T02:43:54.999Z,10.85
2022-10-02T02:46:26.105Z,10.97
2022-10-02T02:48:57.695Z,10.97
2022-10-02T02:51:28.314Z,11.11
2022-10-02T02:54:00.147Z,11.24
2022-10-02T02:56:29.271Z,11.31
2022-10-02T02:59:00.704Z,11.24
2022-10-02T03:01:28.726Z,11.16
2022-10-02T03:03:58.515Z,11.16
2022-10-02T03:06:33.234Z,11.23
2022-10-02T03:09:02.103Z,11.17
2022-10-02T03:11:36.675Z,11.07
2022-10-02T03:14:15.843Z,11.20
2022-10-02T03:16:49.696Z,11.15
2022-10-02T03:19:27.446Z,11.31
2022-10-02T03:21:57.745Z,11.31
2022-10-02T03:24:28.330Z,11.41
2022-10-02T03:27:00.203Z,11.43
2022-10-02T03:29:32.672Z,11.49
2022-10-02T03:32:01.311Z,11.55
2022-10-02T03:34:29.228Z,11.60
2022-10-02T03:36:57.151Z,11.60
2022-10-02T03:39:26.163Z,11.60
2022-10-02T03:41:54.583Z,11.57
2022-10-02T03:44:22.590Z,11.56
2022-10-02T03:46:51.811Z,11.64
2022-10-02T03:49:19.568Z,11.65
2022-10-02T03:51:47.287Z,11.65
2022-10-02T03:54:17.010Z,11.72
2022-10-02T03:56:47.844Z,11.74
2022-10-02T03:59:18.938Z,11.76
2022-10-02T04:01:50.132Z,11.75
2022-10-02T04:04:22.526Z,11.82
2022-10-02T04:06:53.051Z,11.86
2022-10-02T04:09:25.107Z,11.74
2022-10-02T04:11:57.753Z,11.66
2022-10-02T04:14:29.542Z,11.75
2022-10-02T04:17:02.090Z,11.76
2022-10-02T04:19:37.013Z,11.85
2022-10-02T04:22:09.188Z,11.90
2022-10-02T04:24:40.607Z,12.02
2022-10-02T04:27:14.569Z,11.97
2022-10-02T04:29:45.420Z,11.99
2022-10-02T04:32:15.107Z,12.00
2022-10-02T04:34:44.332Z,12.05
2022-10-02T04:37:24.875Z,12.14
2022-10-02T04:39:59.783Z,12.12
2022-10-02T04:42:33.820Z,12.04
2022-10-02T04:45:27.445Z,11.99
2022-10-02T04:48:02.898Z,11.96
2022-10-02T04:50:38.395Z,11.78
2022-10-02T04:53:13.205Z,11.76
2022-10-02T04:55:53.347Z,11.78
2022-10-02T04:58:25.720Z,11.74
2022-10-02T05:00:59.798Z,11.82
2022-10-02T05:03:33.684Z,11.86
2022-10-02T05:06:15.748Z,11.87
2022-10-02T05:08:54.102Z,11.80
2022-10-02T05:11:27.779Z,11.92
2022-10-02T05:14:09.459Z,11.93
2022-10-02T05:16:46.192Z,11.87
2022-10-02T05:19:23.207Z,11.84
2022-10-02T05:22:13.805Z,11.78
2022-10-02T05:24:47.684Z,11.86
2022-10-02T05:27:27.601Z,11.90
2022-10-02T05:30:04.047Z,11.96
2022-10-02T05:32:41.329Z,11.95
2022-10-02T05:35:17.690Z,12.09
2022-10-02T05:37:53.835Z,12.05
2022-10-02T05:40:25.697Z,12.01
2022-10-02T05:42:59.294Z,12.01
2022-10-02T05:45:28.216Z,11.96
2022-10-02T05:47:59.039Z,11.91
2022-10-02T05:50:29.599Z,12.03
2022-10-02T05:53:06.334Z,12.08
2022-10-02T05:55:37.602Z,12.10
2022-10-02T05:58:08.929Z,12.14
2022-10-02T06:00:38.978Z,12.22
2022-10-02T06:03:13.773Z,12.32
2022-10-02T06:05:48.323Z,12.33
2022-10-02T06:08:20.846Z,12.37
2022-10-02T06:10:51.581Z,12.51
2022-10-02T06:13:23.191Z,12.64
2022-10-02T06:15:53.277Z,12.70
2022-10-02T06:18:23.554Z,12.72
2022-10-02T06:20:53.214Z,12.69
2022-10-02T06:23:25.563Z,12.70
2022-10-02T06:25:57.029Z,12.78
2022-10-02T06:28:28.221Z,12.72
2022-10-02T06:31:00.435Z,12.79
2022-10-02T06:33:31.696Z,12.84
2022-10-02T06:36:11.929Z,12.96
2022-10-02T06:38:56.080Z,12.99
2022-10-02T06:41:26.765Z,13.00
2022-10-02T06:44:02.772Z,13.08
2022-10-02T06:46:36.082Z,13.17
2022-10-02T06:49:09.823Z,13.26
2022-10-02T06:51:45.174Z,13.34
2022-10-02T06:54:24.228Z,13.41
2022-10-02T06:56:57.950Z,13.49
2022-10-02T06:59:34.645Z,13.50
2022-10-02T07:02:06.616Z,13.45
2022-10-02T07:04:42.726Z,13.52
2022-10-02T07:07:21.735Z,13.60
2022-10-02T07:09:57.506Z,13.58
2022-10-02T07:12:34.794Z,13.65
2022-10-02T07:15:20.856Z,13.81
2022-10-02T07:17:53.973Z,14.10
2022-10-02T07:20:26.754Z,14.82
2022-10-02T07:23:02.566Z,16.00
2022-10-02T07:25:41.822Z,16.86
2022-10-02T07:28:14.522Z,18.11
2022-10-02T07:30:48.066Z,17.51
2022-10-02T07:33:29.169Z,16.88
2022-10-02T07:36:02.128Z,15.99
2022-10-02T07:38:44.126Z,15.64
2022-10-02T07:41:26.350Z,15.55
2022-10-02T07:43:57.754Z,15.57
2022-10-02T07:46:33.592Z,15.57
2022-10-02T07:49:09.224Z,15.52
2022-10-02T07:51:47.911Z,15.57
2022-10-02T07:54:24.948Z,15.71
2022-10-02T07:56:56.668Z,15.80
2022-10-02T07:59:24.688Z,15.95
2022-10-02T08:01:53.224Z,16.09
2022-10-02T08:04:34.669Z,16.38
2022-10-02T08:07:06.394Z,16.96
2022-10-02T08:09:36.687Z,18.13
2022-10-02T08:12:09.715Z,18.77
2022-10-02T08:14:39.049Z,18.83
2022-10-02T08:17:10.262Z,19.31
2022-10-02T08:19:40.064Z,20.18
2022-10-02T08:22:14.135Z,19.70
2022-10-02T08:24:45.822Z,19.38
2022-10-02T08:27:16.699Z,19.47
2022-10-02T08:29:47.458Z,19.89
2022-10-02T08:32:15.692Z,19.67
2022-10-02T08:34:44.042Z,19.45
2022-10-02T08:37:16.366Z,19.38
2022-10-02T08:40:02.292Z,18.66
2022-10-02T08:42:49.145Z,19.01
2022-10-02T08:45:34.204Z,19.17
2022-10-02T08:48:17.125Z,19.31
2022-10-02T08:51:08.774Z,18.51
2022-10-02T08:53:50.727Z,18.21
2022-10-02T08:56:33.811Z,17.89
2022-10-02T08:59:21.757Z,17.23
2022-10-02T09:02:02.806Z,17.05
2022-10-02T09:04:49.424Z,17.59
2022-10-02T09:07:42.090Z,17.73
2022-10-02T09:10:30.209Z,17.20
2022-10-02T09:13:13.246Z,16.52
2022-10-02T09:15:45.753Z,16.23
2022-10-02T09:18:29.734Z,16.44
2022-10-02T09:21:11.569Z,16.59
2022-10-02T09:23:57.535Z,16.62
2022-10-02T09:26:35.049Z,16.87
2022-10-02T09:29:19.391Z,16.90
2022-10-02T09:32:04.146Z,17.46
2022-10-02T09:34:58.297Z,18.11
2022-10-02T09:37:46.912Z,19.13
2022-10-02T09:40:32.447Z,20.21
2022-10-02T09:43:10.450Z,19.46
2022-10-02T09:45:57.143Z,19.11
2022-10-02T09:48:52.156Z,18.79
2022-10-02T09:51:41.689Z,18.95
2022-10-02T09:54:24.552Z,19.14
2022-10-02T09:57:17.053Z,19.52
2022-10-02T09:59:58.587Z,21.97
2022-10-02T10:02:50.633Z,22.75
2022-10-02T10:05:45.604Z,22.65
2022-10-02T10:08:22.222Z,26.75
2022-10-02T10:11:07.807Z,26.89
2022-10-02T10:13:48.928Z,26.09
2022-10-02T10:16:38.172Z,25.45
2022-10-02T10:19:31.289Z,24.78
2022-10-02T10:22:20.188Z,23.48
2022-10-02T10:25:10.561Z,23.46
2022-10-02T10:27:51.791Z,25.20
2022-10-02T10:30:26.863Z,24.75
2022-10-02T10:33:18.853Z,25.63
2022-10-02T10:35:55.019Z,26.62
2022-10-02T10:38:49.504Z,26.97
2022-10-02T10:41:36.463Z,29.05
2022-10-02T10:44:15.926Z,28.47
2022-10-02T10:46:58.902Z,27.68
2022-10-02T10:50:03.710Z,24.40
2022-10-02T10:52:45.630Z,24.11
2022-10-02T10:55:18.309Z,24.40
2022-10-02T10:58:08.629Z,26.12
2022-10-02T11:00:48.346Z,28.84
2022-10-02T11:03:37.442Z,32.50
2022-10-02T11:06:26.775Z,34.44
2022-10-02T11:09:12.383Z,36.09
2022-10-02T11:11:47.866Z,35.58
2022-10-02T11:14:27.630Z,38.45
2022-10-02T11:17:12.158Z,40.06
2022-10-02T11:19:47.635Z,39.18
2022-10-02T11:22:40.056Z,39.16
2022-10-02T11:25:16.957Z,31.13
2022-10-02T11:27:57.496Z,28.26
2022-10-02T11:30:26.436Z,31.72
2022-10-02T11:33:05.773Z,31.98
2022-10-02T11:35:42.170Z,32.52
2022-10-02T11:38:19.442Z,32.05
2022-10-02T11:40:54.821Z,35.65
2022-10-02T11:43:28.218Z,31.55
2022-10-02T11:46:07.514Z,32.17
2022-10-02T11:48:50.368Z,30.73
2022-10-02T11:51:27.221Z,27.44
2022-10-02T11:54:20.579Z,25.04
2022-10-02T11:57:02.936Z,22.99
2022-10-02T11:59:40.832Z,21.81
2022-10-02T12:02:16.252Z,21.24
2022-10-02T12:04:52.489Z,20.54
2022-10-02T12:07:25.478Z,19.94
2022-10-02T12:09:58.940Z,20.02
2022-10-02T12:12:37.171Z,21.18
2022-10-02T12:15:20.082Z,22.27
2022-10-02T12:17:58.560Z,22.13
2022-10-02T12:20:50.348Z,21.85
2022-10-02T12:23:51.686Z,22.66
2022-10-02T12:26:48.683Z,22.88
2022-10-02T12:29:25.104Z,23.55
2022-10-02T12:31:56.482Z,23.58
2022-10-02T12:34:34.452Z,23.42
2022-10-02T12:37:06.108Z,22.54
2022-10-02T12:39:41.527Z,22.48
2022-10-02T12:42:17.638Z,23.38
2022-10-02T12:44:56.380Z,25.01
2022-10-02T12:47:35.312Z,24.28
2022-10-02T12:50:16.347Z,23.08
2022-10-02T12:53:09.630Z,22.15
2022-10-02T12:55:56.677Z,21.90
2022-10-02T12:58:28.422Z,21.98
2022-10-02T13:01:11.244Z,21.90
2022-10-02T13:03:56.941Z,22.63
2022-10-02T13:06:40.616Z,23.38
2022-10-02T13:09:14.750Z,27.70
2022-10-02T13:11:54.980Z,29.31
2022-10-02T13:14:44.641Z,30.69
2022-10-02T13:17:17.902Z,31.89
2022-10-02T13:19:53.933Z,31.59
2022-10-02T13:22:25.831Z,32.96
2022-10-02T13:25:00.648Z,34.62
2022-10-02T13:27:37.976Z,36.11
2022-10-02T13:30:11.918Z,34.07
2022-10-02T13:32:46.132Z,32.25
2022-10-02T13:35:30.370Z,30.49
2022-10-02T13:38:06.570Z,26.61
2022-10-02T13:40:42.126Z,23.91
2022-10-02T13:43:31.047Z,22.26
2022-10-02T13:46:03.442Z,21.27
2022-10-02T13:48:37.778Z,20.81
2022-10-02T13:51:07.087Z,22.23
2022-10-02T13:53:40.658Z,24.29
2022-10-02T13:56:15.405Z,23.17
2022-10-02T13:58:56.094Z,22.12
2022-10-02T14:01:28.348Z,20.94
2022-10-02T14:04:02.762Z,19.64
2022-10-02T14:06:34.127Z,18.58
2022-10-02T14:09:13.051Z,17.63
2022-10-02T14:11:48.401Z,17.10
2022-10-02T14:14:24.085Z,16.95
2022-10-02T14:16:59.062Z,16.90
2022-10-02T14:19:35.244Z,17.01
2022-10-02T14:22:10.653Z,16.95
2022-10-02T14:25:04.141Z,17.79
2022-10-02T14:27:56.480Z,18.64
2022-10-02T14:30:30.920Z,18.63
2022-10-02T14:33:06.064Z,18.10
2022-10-02T14:35:36.481Z,17.50
2022-10-02T14:38:19.120Z,17.05
2022-10-02T14:40:51.915Z,16.60
2022-10-02T14:43:33.441Z,16.38
2022-10-02T14:46:07.512Z,16.22
2022-10-02T14:48:52.185Z,16.11
2022-10-02T14:51:32.136Z,15.94
2022-10-02T14:54:11.888Z,15.87
2022-10-02T14:56:49.178Z,15.91
2022-10-02T14:59:29.651Z,16.08
2022-10-02T15:02:11.800Z,16.19
2022-10-02T15:04:44.138Z,16.15
2022-10-02T15:07:13.501Z,16.16
2022-10-02T15:09:46.890Z,16.00
2022-10-02T15:12:18.571Z,15.85
2022-10-02T15:14:58.419Z,15.79
2022-10-02T15:17:50.138Z,15.97
2022-10-02T15:20:24.509Z,16.11
2022-10-02T15:22:56.936Z,16.13
2022-10-02T15:25:31.812Z,16.20
2022-10-02T15:28:31.294Z,16.18
2022-10-02T15:30:57.408Z,16.19
2022-10-02T15:33:30.393Z,16.19
2022-10-02T15:36:05.494Z,16.02
2022-10-02T15:38:44.365Z,15.89
2022-10-02T15:41:36.511Z,15.82
2022-10-02T15:44:09.381Z,15.75
2022-10-02T15:46:43.734Z,15.68
2022-10-02T15:49:14.699Z,15.57
2022-10-02T15:51:49.035Z,15.41
2022-10-02T15:54:22.921Z,15.37
2022-10-02T15:56:58.067Z,15.28
2022-10-02T15:59:31.980Z,15.30
2022-10-02T16:02:11.465Z,15.34
2022-10-02T16:04:45.650Z,15.28
2022-10-02T16:07:36.121Z,15.26
2022-10-02T16:10:14.132Z,15.24
2022-10-02T16:12:52.087Z,15.15
2022-10-02T16:15:23.821Z,15.10
2022-10-02T16:18:13.765Z,15.00
2022-10-02T16:20:50.893Z,14.79
2022-10-02T16:23:42.766Z,14.68
2022-10-02T16:26:21.087Z,14.54
2022-10-02T16:28:56.400Z,14.57
2022-10-02T16:31:38.709Z,14.35
2022-10-02T16:34:15.842Z,14.24
2022-10-02T16:36:51.392Z,14.14
2022-10-02T16:39:40.902Z,13.99
2022-10-02T16:42:21.046Z,13.89
2022-10-02T16:44:57.890Z,13.79
2022-10-02T16:47:28.879Z,13.74
2022-10-02T16:49:59.819Z,13.61
2022-10-02T16:52:32.289Z,13.44
2022-10-02T16:55:04.344Z,13.31
2022-10-02T16:57:52.444Z,13.21
2022-10-02T17:00:24.675Z,13.11
2022-10-02T17:02:57.116Z,12.99
2022-10-02T17:05:27.227Z,12.90
2022-10-02T17:08:00.485Z,12.84
2022-10-02T17:10:43.394Z,12.75
2022-10-02T17:13:19.454Z,12.60
2022-10-02T17:15:50.521Z,12.50
2022-10-02T17:18:24.556Z,12.45
2022-10-02T17:20:55.040Z,12.34
2022-10-02T17:23:28.184Z,12.31
2022-10-02T17:26:03.245Z,12.24
2022-10-02T17:28:35.992Z,12.12
2022-10-02T17:31:14.156Z,12.04
2022-10-02T17:33:44.888Z,12.00
2022-10-02T17:36:19.454Z,12.00
2022-10-02T17:38:58.595Z,11.89
2022-10-02T17:41:34.929Z,11.91
2022-10-02T17:44:09.468Z,11.83
2022-10-02T17:46:50.302Z,11.87
2022-10-02T17:49:24.812Z,11.78
2022-10-02T17:52:19.548Z,11.80
2022-10-02T17:55:13.335Z,11.64
2022-10-02T17:57:48.463Z,11.58
2022-10-02T18:00:21.842Z,11.51
2022-10-02T18:03:10.147Z,11.46
2022-10-02T18:05:44.493Z,11.40
2022-10-02T18:08:19.628Z,11.34
2022-10-02T18:10:58.608Z,11.27
2022-10-02T18:13:42.465Z,11.26
2022-10-02T18:16:22.183Z,11.23
2022-10-02T18:19:02.694Z,11.21
2022-10-02T18:21:35.994Z,11.10
2022-10-02T18:24:13.602Z,11.10
2022-10-02T18:26:48.117Z,11.18
2022-10-02T18:29:33.147Z,11.10
2022-10-02T18:32:09.787Z,11.04
2022-10-02T18:34:45.704Z,10.98
2022-10-02T18:37:23.140Z,10.88
2022-10-02T18:40:03.610Z,10.88
2022-10-02T18:42:42.625Z,10.83
2022-10-02T18:45:19.380Z,10.74
2022-10-02T18:47:54.586Z,10.72
2022-10-02T18:50:30.668Z,10.65
2022-10-02T18:53:04.271Z,10.55
2022-10-02T18:55:40.825Z,10.51
2022-10-02T18:58:15.414Z,10.60
2022-10-02T19:01:00.894Z,10.44
2022-10-02T19:03:32.918Z,10.42
2022-10-02T19:06:09.205Z,10.33
2022-10-02T19:08:54.623Z,10.32
2022-10-02T19:11:27.829Z,10.24
2022-10-02T19:14:03.182Z,10.22
2022-10-02T19:16:31.430Z,10.11
2022-10-02T19:19:09.723Z,10.07
2022-10-02T19:21:38.380Z,10.00
2022-10-02T19:24:09.204Z,10.01
2022-10-02T19:26:42.147Z,10.03
2022-10-02T19:29:21.263Z,9.98
2022-10-02T19:31:49.359Z,10.02
2022-10-02T19:34:18.948Z,9.96
2022-10-02T19:36:50.163Z,9.91
2022-10-02T19:39:19.940Z,9.84
2022-10-02T19:41:48.621Z,9.84
2022-10-02T19:44:21.330Z,9.79
2022-10-02T19:46:52.809Z,9.77
2022-10-02T19:49:23.400Z,9.75
2022-10-02T19:51:52.879Z,9.66
2022-10-02T19:54:23.311Z,9.73
2022-10-02T19:56:54.186Z,9.63
2022-10-02T19:59:26.113Z,9.69
2022-10-02T20:01:54.795Z,9.73
2022-10-02T20:04:24.332Z,9.64
2022-10-02T20:06:53.863Z,9.60
2022-10-02T20:09:25.798Z,9.66
2022-10-02T20:11:55.811Z,9.60
2022-10-02T20:14:28.033Z,9.57
2022-10-02T20:17:10.079Z,9.58
2022-10-02T20:19:41.151Z,9.53
2022-10-02T20:22:14.363Z,9.50
2022-10-02T20:24:49.012Z,9.43
2022-10-02T20:27:19.550Z,9.41
2022-10-02T20:29:50.671Z,9.38
2022-10-02T20:32:21.484Z,9.39
2022-10-02T20:34:53.313Z,9.40
2022-10-02T20:37:23.524Z,9.38
2022-10-02T20:39:58.797Z,9.28
2022-10-02T20:42:33.137Z,9.26
2022-10-02T20:45:02.375Z,9.18
2022-10-02T20:47:37.318Z,9.16
2022-10-02T20:50:26.010Z,9.13
2022-10-02T20:53:14.589Z,9.09
2022-10-02T20:55:43.548Z,9.14
2022-10-02T20:58:25.098Z,9.01
2022-10-02T21:01:02.475Z,8.96
2022-10-02T21:03:43.798Z,8.93
2022-10-02T21:06:32.399Z,8.87
2022-10-02T21:09:27.244Z,8.85
2022-10-02T21:12:00.206Z,8.81
2022-10-02T21:14:44.693Z,8.72
2022-10-02T21:17:22.871Z,8.69
2022-10-02T21:20:08.449Z,8.67
2022-10-02T21:22:49.780Z,8.65
2022-10-02T21:25:26.857Z,8.54
2022-10-02T21:28:09.404Z,8.47
2022-10-02T21:30:41.367Z,8.42
2022-10-02T21:33:14.961Z,8.40
2022-10-02T21:35:50.233Z,8.33
2022-10-02T21:38:26.449Z,8.25
2022-10-02T21:41:13.435Z,8.22
2022-10-02T21:43:51.934Z,8.21
2022-10-02T21:46:37.625Z,8.18
2022-10-02T21:49:26.456Z,8.15
2022-10-02T21:52:08.629Z,8.11
2022-10-02T21:55:03.709Z,8.05
2022-10-02T21:57:55.876Z,8.02
2022-10-02T22:00:26.507Z,7.96
2022-10-02T22:03:12.886Z,7.99
2022-10-02T22:05:53.737Z,7.94
2022-10-02T22:08:28.475Z,7.94
2022-10-02T22:11:02.369Z,7.91
2022-10-02T22:13:34.020Z,7.87
2022-10-02T22:16:08.786Z,7.82
2022-10-02T22:18:44.311Z,7.83
2022-10-02T22:21:19.784Z,7.77
2022-10-02T22:24:03.032Z,7.85
2022-10-02T22:26:40.277Z,7.73
2022-10-02T22:29:12.605Z,7.66
2022-10-02T22:32:18.125Z,7.63
2022-10-02T22:34:49.799Z,7.69
2022-10-02T22:37:27.677Z,7.73
2022-10-02T22:40:01.786Z,7.67
2022-10-02T22:42:34.666Z,7.57
2022-10-02T22:45:06.119Z,7.65
2022-10-02T22:47:38.263Z,7.73
2022-10-02T22:50:10.679Z,7.67
2022-10-02T22:52:47.277Z,7.57
2022-10-02T22:55:19.673Z,7.47
2022-10-02T22:57:49.777Z,7.48
2022-10-02T23:00:19.311Z,7.47
2022-10-02T23:02:52.463Z,7.48
2022-10-02T23:05:24.370Z,7.52
2022-10-02T23:07:55.496Z,7.45
2022-10-02T23:10:29.870Z,7.40
2022-10-02T23:13:04.261Z,7.45
2022-10-02T23:15:36.046Z,7.36
2022-10-02T23:18:06.046Z,7.32
2022-10-02T23:20:36.795Z,7.35
2022-10-02T23:23:13.305Z,7.35
2022-10-02T23:25:45.185Z,7.28
2022-10-02T23:28:17.073Z,7.34
2022-10-02T23:30:46.672Z,7.34
2022-10-02T23:33:22.082Z,7.27
2022-10-02T23:35:53.384Z,7.25
2022-10-02T23:38:24.248Z,7.20
2022-10-02T23:41:23.547Z,7.20
2022-10-02T23:43:55.727Z,7.28
2022-10-02T23:46:27.213Z,7.15
2022-10-02T23:48:55.907Z,7.12
2022-10-02T23:51:29.390Z,7.17
2022-10-02T23:54:07.050Z,7.25
2022-10-02T23:56:45.627Z,7.15
2022-10-02T23:59:21.659Z,7.04
